createdAt,value
2023-04-14T00:01:17.430Z,99.20
2023-04-14T00:03:46.500Z,99.60
2023-04-14T00:06:15.013Z,99.30
2023-04-14T00:08:43.396Z,99.20
2023-04-14T00:11:13.979Z,99.30
2023-04-14T00:13:42.431Z,99.30
2023-04-14T00:16:12.271Z,99.20
2023-04-14T00:18:42.452Z,99.30
2023-04-14T00:21:10.883Z,99.30
2023-04-14T00:23:39.281Z,99.10
2023-04-14T00:26:07.663Z,99.10
2023-04-14T00:28:35.997Z,99.10
2023-04-14T00:31:04.348Z,99.20
2023-04-14T00:33:33.549Z,99.20
2023-04-14T00:36:05.008Z,99.20
2023-04-14T00:38:33.409Z,99.20
2023-04-14T00:41:01.877Z,99.10
2023-04-14T00:43:30.600Z,99.20
2023-04-14T00:45:59.503Z,99.10
2023-04-14T00:48:28.151Z,99.20
2023-04-14T00:50:56.582Z,99.20
2023-04-14T00:53:32.825Z,99.20
2023-04-14T00:56:03.522Z,99.10
2023-04-14T00:58:32.691Z,99.10
2023-04-14T01:01:02.549Z,99.20
2023-04-14T01:03:31.059Z,99.20
2023-04-14T01:05:59.665Z,99.10
2023-04-14T01:08:29.949Z,99.10
2023-04-14T01:11:10.100Z,99.10
2023-04-14T01:13:47.959Z,99.20
2023-04-14T01:16:24.417Z,99.20
2023-04-14T01:19:11.584Z,99.20
2023-04-14T01:21:43.457Z,99.20
2023-04-14T01:24:38.831Z,99.10
2023-04-14T01:27:31.801Z,99.20
2023-04-14T01:30:33.319Z,99.10
2023-04-14T01:33:08.351Z,99.10
2023-04-14T01:35:41.199Z,99.10
2023-04-14T01:38:22.102Z,99.10
2023-04-14T01:40:54.053Z,99.10
2023-04-14T01:43:27.598Z,99.50
2023-04-14T01:46:00.501Z,99.10
2023-04-14T01:48:32.410Z,99.10
2023-04-14T01:51:02.345Z,99.40
2023-04-14T01:53:33.964Z,99.20
2023-04-14T01:56:04.011Z,99.20
2023-04-14T01:58:33.691Z,99.20
2023-04-14T02:01:02.486Z,99.20
2023-04-14T02:03:33.977Z,99.10
2023-04-14T02:06:04.498Z,99.10
2023-04-14T02:08:35.195Z,99.20
2023-04-14T02:11:07.623Z,99.20
2023-04-14T02:13:36.929Z,99.10
2023-04-14T02:16:09.047Z,99.20
2023-04-14T02:18:40.601Z,99.10
2023-04-14T02:21:11.137Z,99.10
2023-04-14T02:23:39.522Z,99.10
2023-04-14T02:26:15.594Z,99.10
2023-04-14T02:28:58.629Z,98.90
2023-04-14T02:31:28.452Z,99.50
2023-04-14T02:34:02.051Z,99.10
2023-04-14T02:36:35.755Z,99.10
2023-04-14T02:39:15.468Z,99.10
2023-04-14T02:41:46.612Z,99.10
2023-04-14T02:44:20.367Z,99.10
2023-04-14T02:47:03.710Z,99.10
2023-04-14T02:49:38.545Z,99.10
2023-04-14T02:52:08.422Z,99.10
2023-04-14T02:54:39.692Z,99.10
2023-04-14T02:57:09.596Z,99.20
2023-04-14T02:59:42.971Z,99.10
2023-04-14T03:02:14.501Z,99.10
2023-04-14T03:04:53.428Z,99.10
2023-04-14T03:07:32.653Z,99.10
2023-04-14T03:10:01.773Z,99.10
2023-04-14T03:12:31.809Z,99.10
2023-04-14T03:15:00.862Z,99.10
2023-04-14T03:17:30.113Z,99.10
2023-04-14T03:20:01.856Z,99.10
2023-04-14T03:22:34.355Z,99.10
2023-04-14T03:25:02.840Z,99.10
2023-04-14T03:27:34.450Z,99.10
2023-04-14T03:30:07.686Z,99.30
2023-04-14T03:32:43.600Z,99.10
2023-04-14T03:35:16.043Z,99.40
2023-04-14T03:37:47.666Z,99.10
2023-04-14T03:40:17.705Z,99.10
2023-04-14T03:42:50.052Z,99.10
2023-04-14T03:45:21.922Z,99.10
2023-04-14T03:47:51.221Z,99.10
2023-04-14T03:50:23.288Z,99.10
2023-04-14T03:52:55.158Z,99.10
2023-04-14T03:55:27.034Z,99.00
2023-04-14T03:57:57.714Z,99.10
2023-04-14T04:00:28.614Z,99.10
2023-04-14T04:02:58.868Z,99.10
2023-04-14T04:05:29.477Z,99.10
2023-04-14T04:08:03.342Z,99.00
2023-04-14T04:10:35.771Z,99.10
2023-04-14T04:13:08.879Z,99.10
2023-04-14T04:15:39.373Z,99.10
2023-04-14T04:18:09.103Z,99.10
2023-04-14T04:20:39.694Z,99.10
2023-04-14T04:23:10.632Z,99.10
2023-04-14T04:25:40.932Z,99.10
2023-04-14T04:28:18.536Z,99.10
2023-04-14T04:30:48.708Z,99.10
2023-04-14T04:33:18.142Z,99.10
2023-04-14T04:35:49.219Z,99.10
2023-04-14T04:38:17.986Z,99.10
2023-04-14T04:40:47.710Z,99.10
2023-04-14T04:43:26.598Z,99.00
2023-04-14T04:46:15.575Z,99.00
2023-04-14T04:48:44.117Z,99.10
2023-04-14T04:51:13.980Z,99.00
2023-04-14T04:53:42.563Z,98.90
2023-04-14T04:56:11.196Z,99.00
2023-04-14T04:58:39.565Z,99.10
2023-04-14T05:01:11.705Z,99.00
2023-04-14T05:03:40.193Z,99.20
2023-04-14T05:06:08.608Z,99.10
2023-04-14T05:08:38.400Z,99.20
2023-04-14T05:11:07.452Z,99.10
2023-04-14T05:13:35.936Z,99.20
2023-04-14T05:16:05.671Z,99.00
2023-04-14T05:18:34.934Z,99.10
2023-04-14T05:21:04.919Z,99.20
2023-04-14T05:23:35.410Z,99.20
2023-04-14T05:26:31.250Z,99.20
2023-04-14T05:28:58.116Z,99.20
2023-04-14T05:31:26.637Z,99.10
2023-04-14T05:33:55.000Z,99.10
2023-04-14T05:36:27.462Z,99.10
2023-04-14T05:38:55.918Z,99.00
2023-04-14T05:41:25.598Z,99.00
2023-04-14T05:43:53.992Z,99.10
2023-04-14T05:46:22.363Z,99.20
2023-04-14T05:48:50.734Z,99.20
2023-04-14T05:51:19.113Z,99.20
2023-04-14T05:53:47.697Z,99.20
2023-04-14T05:56:16.067Z,99.30
2023-04-14T05:58:45.749Z,99.50
2023-04-14T06:01:14.154Z,99.30
2023-04-14T06:03:42.983Z,99.30
2023-04-14T06:06:11.620Z,99.20
2023-04-14T06:08:39.956Z,99.20
2023-04-14T06:11:08.277Z,99.40
2023-04-14T06:13:36.734Z,99.30
2023-04-14T06:16:07.370Z,99.30
2023-04-14T06:18:35.766Z,99.40
2023-04-14T06:21:04.146Z,99.40
2023-04-14T06:23:32.731Z,99.40
2023-04-14T06:26:01.393Z,99.40
2023-04-14T06:28:29.812Z,99.40
2023-04-14T06:30:58.384Z,99.40
2023-04-14T06:33:28.103Z,99.70
2023-04-14T06:35:56.667Z,99.40
2023-04-14T06:38:25.371Z,99.40
2023-04-14T06:40:55.045Z,99.50
2023-04-14T06:43:23.628Z,99.50
2023-04-14T06:45:52.061Z,99.50
2023-04-14T06:48:20.477Z,99.60
2023-04-14T06:50:56.276Z,99.60
2023-04-14T06:53:25.983Z,99.80
2023-04-14T06:56:00.579Z,99.60
2023-04-14T06:58:29.807Z,99.70
2023-04-14T07:00:58.374Z,99.90
2023-04-14T07:03:27.955Z,99.90
2023-04-14T07:06:04.667Z,99.90
2023-04-14T07:08:35.059Z,99.90
2023-04-14T07:11:05.481Z,99.90
2023-04-14T07:13:34.298Z,99.90
2023-04-14T07:16:03.406Z,99.90
2023-04-14T07:18:32.696Z,99.90
2023-04-14T07:21:03.521Z,99.90
2023-04-14T07:23:33.571Z,99.90
2023-04-14T07:26:02.124Z,99.90
2023-04-14T07:28:30.497Z,99.90
2023-04-14T07:30:59.026Z,99.90
2023-04-14T07:33:31.180Z,99.90
2023-04-14T07:36:03.834Z,99.90
2023-04-14T07:38:35.747Z,99.90
2023-04-14T07:41:05.991Z,99.90
2023-04-14T07:43:35.799Z,99.90
2023-04-14T07:46:05.746Z,99.90
2023-04-14T07:48:36.202Z,99.90
2023-04-14T07:51:06.900Z,99.90
2023-04-14T07:53:40.408Z,99.90
2023-04-14T07:56:09.275Z,99.90
2023-04-14T07:58:37.766Z,99.90
2023-04-14T08:01:06.478Z,99.90
2023-04-14T08:03:36.452Z,99.90
2023-04-14T08:06:08.040Z,99.90
2023-04-14T08:08:36.971Z,99.90
2023-04-14T08:11:05.484Z,99.90
2023-04-14T08:13:33.857Z,99.90
2023-04-14T08:16:02.477Z,99.90
2023-04-14T08:18:30.830Z,99.90
2023-04-14T08:20:59.152Z,99.90
2023-04-14T08:23:28.956Z,99.90
2023-04-14T08:25:57.589Z,99.90
2023-04-14T08:28:26.326Z,99.90
2023-04-14T08:30:55.111Z,99.90
2023-04-14T08:33:23.472Z,99.90
2023-04-14T08:35:58.483Z,99.90
2023-04-14T08:38:29.969Z,99.90
2023-04-14T08:40:58.600Z,99.90
2023-04-14T08:43:27.077Z,99.90
2023-04-14T08:45:56.345Z,99.90
2023-04-14T08:48:30.736Z,99.90
2023-04-14T08:51:07.846Z,99.90
2023-04-14T08:53:45.188Z,99.90
2023-04-14T08:56:17.519Z,99.90
2023-04-14T08:58:47.373Z,99.90
2023-04-14T09:01:16.727Z,99.90
2023-04-14T09:03:46.002Z,99.90
2023-04-14T09:06:15.383Z,99.90
2023-04-14T09:08:45.103Z,99.90
2023-04-14T09:11:14.351Z,99.90
2023-04-14T09:13:45.461Z,99.90
2023-04-14T09:16:14.475Z,99.90
2023-04-14T09:18:43.200Z,99.90
2023-04-14T09:21:50.286Z,99.90
2023-04-14T09:24:07.155Z,99.90
2023-04-14T09:26:35.660Z,99.90
2023-04-14T09:29:04.299Z,99.90
2023-04-14T09:31:32.894Z,99.90
2023-04-14T09:34:01.561Z,99.90
2023-04-14T09:36:31.437Z,99.90
2023-04-14T09:38:59.828Z,99.90
2023-04-14T09:41:29.559Z,99.90
2023-04-14T09:44:08.249Z,99.90
2023-04-14T09:46:36.727Z,99.90
2023-04-14T09:49:07.155Z,99.90
2023-04-14T09:51:35.654Z,99.90
2023-04-14T09:54:06.251Z,99.90
2023-04-14T09:56:36.421Z,99.90
2023-04-14T09:59:04.851Z,99.90
2023-04-14T10:01:35.216Z,99.90
2023-04-14T10:04:04.067Z,99.90
2023-04-14T10:06:32.622Z,99.90
2023-04-14T10:09:02.291Z,99.80
2023-04-14T10:11:33.045Z,99.70
2023-04-14T10:14:05.198Z,99.40
2023-04-14T10:16:34.537Z,99.40
2023-04-14T10:19:03.912Z,99.30
2023-04-14T10:21:32.829Z,99.20
2023-04-14T10:24:01.763Z,99.10
2023-04-14T10:26:30.847Z,99.10
2023-04-14T10:28:59.652Z,98.90
2023-04-14T10:31:34.383Z,98.50
2023-04-14T10:34:10.801Z,98.10
2023-04-14T10:36:39.987Z,98.00
2023-04-14T10:39:09.843Z,98.30
2023-04-14T10:41:48.088Z,98.20
2023-04-14T10:44:28.226Z,97.90
2023-04-14T10:47:00.348Z,98.00
2023-04-14T10:49:33.086Z,98.30
2023-04-14T10:52:03.917Z,98.20
2023-04-14T10:54:50.832Z,98.20
2023-04-14T10:57:20.642Z,98.00
2023-04-14T10:59:49.323Z,98.00
2023-04-14T11:02:28.148Z,97.80
2023-04-14T11:05:02.374Z,97.90
2023-04-14T11:07:32.080Z,97.50
2023-04-14T11:10:05.088Z,97.60
2023-04-14T11:12:43.431Z,97.50
2023-04-14T11:15:12.318Z,97.50
2023-04-14T11:17:44.172Z,97.50
2023-04-14T11:20:17.310Z,97.20
2023-04-14T11:22:47.492Z,97.00
2023-04-14T11:25:17.970Z,97.00
2023-04-14T11:27:48.472Z,97.00
2023-04-14T11:30:18.913Z,97.00
2023-04-14T11:32:54.066Z,96.70
2023-04-14T11:35:26.122Z,96.10
2023-04-14T11:37:55.823Z,96.70
2023-04-14T11:40:26.499Z,96.50
2023-04-14T11:42:57.340Z,96.50
2023-04-14T11:45:32.654Z,96.30
2023-04-14T11:48:04.422Z,95.70
2023-04-14T11:50:35.900Z,95.70
2023-04-14T11:53:08.965Z,96.10
2023-04-14T11:55:38.323Z,95.60
2023-04-14T11:58:06.783Z,95.90
2023-04-14T12:00:35.227Z,95.80
2023-04-14T12:03:05.743Z,95.80
2023-04-14T12:05:35.546Z,95.40
2023-04-14T12:08:07.673Z,95.50
2023-04-14T12:10:36.518Z,95.40
2023-04-14T12:13:06.460Z,95.40
2023-04-14T12:15:36.976Z,95.00
2023-04-14T12:18:10.053Z,95.00
2023-04-14T12:20:44.009Z,94.70
2023-04-14T12:23:12.528Z,94.20
2023-04-14T12:25:41.161Z,94.40
2023-04-14T12:28:09.724Z,94.30
2023-04-14T12:30:52.233Z,94.10
2023-04-14T12:33:24.670Z,94.20
2023-04-14T12:35:53.708Z,94.00
2023-04-14T12:38:29.336Z,94.10
2023-04-14T12:40:58.105Z,93.80
2023-04-14T12:43:31.528Z,94.30
2023-04-14T12:46:00.917Z,93.90
2023-04-14T12:48:45.854Z,94.00
2023-04-14T12:51:16.794Z,93.40
2023-04-14T12:53:49.316Z,94.20
2023-04-14T12:56:22.219Z,93.90
2023-04-14T12:58:51.522Z,93.80
2023-04-14T13:01:21.928Z,94.10
2023-04-14T13:03:55.805Z,93.50
2023-04-14T13:06:26.094Z,93.40
2023-04-14T13:08:56.133Z,93.30
2023-04-14T13:11:25.731Z,93.30
2023-04-14T13:13:54.656Z,93.20
2023-04-14T13:16:26.364Z,93.10
2023-04-14T13:18:56.814Z,93.00
2023-04-14T13:21:25.953Z,92.70
2023-04-14T13:23:54.438Z,92.90
2023-04-14T13:26:22.797Z,92.90
2023-04-14T13:28:51.275Z,92.80
2023-04-14T13:31:19.680Z,92.70
2023-04-14T13:33:48.123Z,92.50
2023-04-14T13:36:18.946Z,92.80
2023-04-14T13:38:47.349Z,92.00
2023-04-14T13:41:18.749Z,92.30
2023-04-14T13:43:48.397Z,92.30
2023-04-14T13:46:19.083Z,91.90
2023-04-14T13:48:48.083Z,92.00
2023-04-14T13:51:18.373Z,91.90
2023-04-14T13:53:48.121Z,92.20
2023-04-14T13:56:16.455Z,91.80
2023-04-14T13:58:44.881Z,91.80
2023-04-14T14:01:13.781Z,91.60
2023-04-14T14:03:42.817Z,91.60
2023-04-14T14:06:11.287Z,92.00
2023-04-14T14:08:42.294Z,92.40
2023-04-14T14:11:11.483Z,92.00
2023-04-14T14:13:40.862Z,91.90
2023-04-14T14:16:10.220Z,92.40
2023-04-14T14:18:38.926Z,91.90
2023-04-14T14:21:07.494Z,91.80
2023-04-14T14:23:35.846Z,91.90
2023-04-14T14:26:12.114Z,92.00
2023-04-14T14:28:40.728Z,91.90
2023-04-14T14:31:09.155Z,92.10
2023-04-14T14:33:37.978Z,92.10
2023-04-14T14:36:07.406Z,91.90
2023-04-14T14:38:35.813Z,92.00
2023-04-14T14:41:04.547Z,92.00
2023-04-14T14:43:34.294Z,91.90
2023-04-14T14:46:02.709Z,91.70
2023-04-14T14:48:31.404Z,91.50
2023-04-14T14:50:59.813Z,91.20
2023-04-14T14:53:28.118Z,91.10
2023-04-14T14:55:56.486Z,91.50
2023-04-14T14:58:25.517Z,91.10
2023-04-14T15:00:55.901Z,91.10
2023-04-14T15:03:24.509Z,90.70
2023-04-14T15:05:53.325Z,90.70
2023-04-14T15:08:21.802Z,90.70
2023-04-14T15:10:51.479Z,90.90
2023-04-14T15:13:19.866Z,90.40
2023-04-14T15:15:48.299Z,90.40
2023-04-14T15:18:18.097Z,89.90
2023-04-14T15:20:46.764Z,90.10
2023-04-14T15:23:15.127Z,90.00
2023-04-14T15:25:43.471Z,89.90
2023-04-14T15:28:12.971Z,89.50
2023-04-14T15:30:41.653Z,90.20
2023-04-14T15:33:10.040Z,89.80
2023-04-14T15:35:40.665Z,89.20
2023-04-14T15:38:09.158Z,88.70
2023-04-14T15:40:39.844Z,88.40
2023-04-14T15:43:08.294Z,87.90
2023-04-14T15:45:39.739Z,88.20
2023-04-14T15:48:08.204Z,87.90
2023-04-14T15:50:44.649Z,88.10
2023-04-14T15:53:14.860Z,88.00
2023-04-14T15:55:44.364Z,87.10
2023-04-14T15:58:12.701Z,87.50
2023-04-14T16:00:41.030Z,86.80
2023-04-14T16:03:11.863Z,86.30
2023-04-14T16:05:40.542Z,86.00
2023-04-14T16:08:26.225Z,86.50
2023-04-14T16:10:54.649Z,85.80
2023-04-14T16:13:23.063Z,86.40
2023-04-14T16:15:51.462Z,86.80
2023-04-14T16:18:19.887Z,86.00
2023-04-14T16:20:50.226Z,85.30
2023-04-14T16:23:18.741Z,85.10
2023-04-14T16:25:51.152Z,85.30
2023-04-14T16:28:19.570Z,84.30
2023-04-14T16:30:47.976Z,84.50
2023-04-14T16:33:16.649Z,84.70
2023-04-14T16:35:45.010Z,84.70
2023-04-14T16:38:13.508Z,84.20
2023-04-14T16:40:42.741Z,84.20
2023-04-14T16:43:13.900Z,84.00
2023-04-14T16:45:42.276Z,82.60
2023-04-14T16:48:10.690Z,82.80
2023-04-14T16:50:40.541Z,83.60
2023-04-14T16:53:08.974Z,83.40
2023-04-14T16:55:37.488Z,83.20
2023-04-14T16:58:06.044Z,82.90
2023-04-14T17:00:35.825Z,82.20
2023-04-14T17:03:04.589Z,82.10
2023-04-14T17:05:33.386Z,82.50
2023-04-14T17:08:02.293Z,83.00
2023-04-14T17:10:31.234Z,82.70
2023-04-14T17:12:59.556Z,82.90
2023-04-14T17:15:28.542Z,83.00
2023-04-14T17:17:58.318Z,82.40
2023-04-14T17:20:27.376Z,82.90
2023-04-14T17:23:00.248Z,83.80
2023-04-14T17:25:29.062Z,83.20
2023-04-14T17:27:57.459Z,83.90
2023-04-14T17:30:27.199Z,83.70
2023-04-14T17:32:57.813Z,84.70
2023-04-14T17:35:26.364Z,84.50
2023-04-14T17:37:54.994Z,84.50
2023-04-14T17:40:23.498Z,85.80
2023-04-14T17:42:52.035Z,85.30
2023-04-14T17:45:23.175Z,85.30
2023-04-14T17:47:52.328Z,85.10
2023-04-14T17:50:22.791Z,85.80
2023-04-14T17:52:52.129Z,85.20
2023-04-14T17:55:21.483Z,85.70
2023-04-14T17:57:50.691Z,85.50
2023-04-14T18:00:20.052Z,85.80
2023-04-14T18:02:48.514Z,85.80
2023-04-14T18:05:17.083Z,86.00
2023-04-14T18:07:46.953Z,86.50
2023-04-14T18:10:15.341Z,86.20
2023-04-14T18:12:44.128Z,86.40
2023-04-14T18:15:15.466Z,87.50
2023-04-14T18:17:44.015Z,87.80
2023-04-14T18:20:13.750Z,87.90
2023-04-14T18:22:43.345Z,88.40
2023-04-14T18:25:13.444Z,88.60
2023-04-14T18:30:13.718Z,89.50
2023-04-14T18:32:42.055Z,89.80
2023-04-14T18:35:11.842Z,90.10
2023-04-14T18:37:40.356Z,89.80
2023-04-14T18:40:10.535Z,89.70
2023-04-14T18:42:40.284Z,90.10
2023-04-14T18:45:12.147Z,90.10
2023-04-14T18:47:43.164Z,90.10
2023-04-14T18:50:12.644Z,90.00
2023-04-14T18:52:40.983Z,90.20
2023-04-14T18:55:10.612Z,90.30
2023-04-14T18:57:40.441Z,90.50
2023-04-14T19:00:10.656Z,90.90
2023-04-14T19:02:39.190Z,90.70
2023-04-14T19:05:09.856Z,90.70
2023-04-14T19:07:38.281Z,90.90
2023-04-14T19:10:07.867Z,90.90
2023-04-14T19:12:37.875Z,91.10
2023-04-14T19:15:09.291Z,91.10
2023-04-14T19:17:37.799Z,91.20
2023-04-14T19:20:08.050Z,91.20
2023-04-14T19:22:36.563Z,91.40
2023-04-14T19:25:05.591Z,91.30
2023-04-14T19:27:36.023Z,91.40
2023-04-14T19:30:04.880Z,91.50
2023-04-14T19:32:34.897Z,91.50
2023-04-14T19:35:03.562Z,91.50
2023-04-14T19:37:31.933Z,91.60
2023-04-14T19:40:00.423Z,91.60
2023-04-14T19:42:28.867Z,91.70
2023-04-14T19:44:57.435Z,91.60
2023-04-14T19:47:25.947Z,91.70
2023-04-14T19:49:59.547Z,91.80
2023-04-14T19:52:28.325Z,91.80
2023-04-14T19:54:56.915Z,91.80
2023-04-14T19:57:25.461Z,91.80
2023-04-14T19:59:54.605Z,91.90
2023-04-14T20:02:23.223Z,92.00
2023-04-14T20:04:59.933Z,92.10
2023-04-14T20:07:28.527Z,92.30
2023-04-14T20:09:56.891Z,92.30
2023-04-14T20:12:25.237Z,92.20
2023-04-14T20:14:53.635Z,92.20
2023-04-14T20:17:23.290Z,92.30
2023-04-14T20:19:51.803Z,92.40
2023-04-14T20:22:21.614Z,92.40
2023-04-14T20:24:49.926Z,92.50
2023-04-14T20:27:18.727Z,92.60
2023-04-14T20:29:48.359Z,92.60
2023-04-14T20:32:16.879Z,92.70
2023-04-14T20:34:45.192Z,92.70
2023-04-14T20:37:13.724Z,92.80
2023-04-14T20:39:45.071Z,92.80
2023-04-14T20:42:13.866Z,92.90
2023-04-14T20:44:42.180Z,92.90
2023-04-14T20:47:10.689Z,93.00
2023-04-14T20:49:39.289Z,92.90
2023-04-14T20:52:07.644Z,93.00
2023-04-14T20:54:36.518Z,93.00
2023-04-14T20:57:06.983Z,93.10
2023-04-14T20:59:35.326Z,93.10
2023-04-14T21:02:03.784Z,93.10
2023-04-14T21:04:32.327Z,93.10
2023-04-14T21:07:00.796Z,93.20
2023-04-14T21:09:30.155Z,93.60
2023-04-14T21:12:15.479Z,93.20
2023-04-14T21:15:31.486Z,93.30
2023-04-14T21:17:35.390Z,93.40
2023-04-14T21:20:04.236Z,93.40
2023-04-14T21:22:33.252Z,93.40
2023-04-14T21:25:01.605Z,93.40
2023-04-14T21:27:30.019Z,93.50
2023-04-14T21:29:59.756Z,93.50
2023-04-14T21:32:28.636Z,93.60
2023-04-14T21:34:57.056Z,93.60
2023-04-14T21:37:25.448Z,93.60
2023-04-14T21:39:53.814Z,93.60
2023-04-14T21:42:22.315Z,93.60
2023-04-14T21:44:50.654Z,93.60
2023-04-14T21:47:20.451Z,93.70
2023-04-14T21:49:48.810Z,93.70
2023-04-14T21:52:18.550Z,93.70
2023-04-14T21:54:47.537Z,93.70
2023-04-14T21:57:15.918Z,93.70
2023-04-14T21:59:44.344Z,93.80
2023-04-14T22:02:13.774Z,93.70
2023-04-14T22:04:43.668Z,93.70
2023-04-14T22:07:12.105Z,93.90
2023-04-14T22:09:43.786Z,93.80
2023-04-14T22:12:12.656Z,93.90
2023-04-14T22:14:41.484Z,93.90
2023-04-14T22:17:12.973Z,93.90
2023-04-14T22:19:41.642Z,94.00
2023-04-14T22:22:11.351Z,93.90
2023-04-14T22:24:39.705Z,94.00
2023-04-14T22:27:08.343Z,94.00
2023-04-14T22:29:36.679Z,94.10
2023-04-14T22:32:05.426Z,94.10
2023-04-14T22:34:33.777Z,94.10
2023-04-14T22:37:02.270Z,94.10
2023-04-14T22:39:32.015Z,94.10
2023-04-14T22:42:00.633Z,94.10
2023-04-14T22:44:29.019Z,94.10
2023-04-14T22:46:57.391Z,94.10
2023-04-14T22:49:25.715Z,94.20
2023-04-14T22:51:54.097Z,94.20
2023-04-14T22:54:22.440Z,94.30
2023-04-14T22:56:52.299Z,94.30
2023-04-14T22:59:20.626Z,94.30
2023-04-14T23:01:49.396Z,94.30
2023-04-14T23:04:17.833Z,94.30
2023-04-14T23:06:47.301Z,94.40
2023-04-14T23:09:16.153Z,94.40
2023-04-14T23:11:44.506Z,94.40
2023-04-14T23:14:14.188Z,94.40
2023-04-14T23:16:42.517Z,94.50
2023-04-14T23:19:11.692Z,94.40
2023-04-14T23:21:40.679Z,94.50
2023-04-14T23:24:09.302Z,94.50
2023-04-14T23:26:37.647Z,94.50
2023-04-14T23:29:05.992Z,94.50
2023-04-14T23:31:35.955Z,94.50
2023-04-14T23:34:04.433Z,94.50
2023-04-14T23:36:33.409Z,94.50
2023-04-14T23:39:01.887Z,94.50
2023-04-14T23:41:30.860Z,94.60
2023-04-14T23:43:59.238Z,94.60
2023-04-14T23:46:27.643Z,94.60
2023-04-14T23:48:57.518Z,94.50
2023-04-14T23:51:27.289Z,94.90
2023-04-14T23:53:56.306Z,94.60
2023-04-14T23:56:24.611Z,94.70
2023-04-14T23:58:53.256Z,94.70
